Flight Track Log - Related Links

Times and Time Zones

All times are in EDT time to prevent confusion due to time zone crossing. See the N42HN flight status page for this flight to view local times or setup timezone preferences in your user account.


Time Position Orientation Groundspeed Altitude Reporting Facility
EDT Latitude Longitude Course Direction KTS MPH feet Rate Location/Type
Mon 09:55:45 AM 33.9667 -84.0000 270° West 191 220 2,100  Level Atlanta TRACON
Mon 09:56:39 AM 33.9667 -84.0667 270° West 198 228 4,700 2,895 Climbing Atlanta TRACON
Mon 09:57:39 AM 33.9500 -84.1333 253° West 213 245 7,600 2,369 Climbing Atlanta TRACON
Mon 09:59:16 AM 33.9297 -84.2617 259° West 241 277 10,900 2,331 Climbing Atlanta Center
Mon 10:00:16 AM 33.8961 -84.3492 245° Southwest 274 315 13,700 2,667 Climbing Atlanta Center
Mon 10:02:16 AM 33.9225 -84.5569 279° West 299 344 18,900 2,433 Climbing Atlanta Center
Mon 10:03:16 AM 33.9389 -84.6572 281° West 306 352 21,000 1,850 Climbing Atlanta Center
Mon 10:04:16 AM 33.9528 -84.7650 279° West 322 371 22,600 1,800 Climbing Atlanta Center
Mon 10:05:16 AM 33.9708 -84.8756 281° West 332 382 24,600 1,700 Climbing Atlanta Center
Mon 10:06:16 AM 33.9828 -84.9733 278° West 337 388 26,000 1,150 Climbing Atlanta Center
Mon 10:07:16 AM 34.0006 -85.0861 281° West 337 388 26,900 1,150 Climbing Atlanta Center
Mon 10:08:16 AM 34.0164 -85.2042 279° West 352 405 28,300 1,400 Climbing Atlanta Center
Mon 10:09:16 AM 34.0317 -85.3197 279° West 352 405 29,700 1,250 Climbing Atlanta Center
Mon 10:10:16 AM 34.0472 -85.4378 279° West 352 405 30,800 750 Climbing Atlanta Center
Mon 10:11:16 AM 34.0647 -85.5558 280° West 358 412 31,200 400 Climbing Atlanta Center
Mon 10:12:16 AM 34.0817 -85.6842 279° West 378 435 31,600 650 Climbing Atlanta Center
Mon 10:13:16 AM 34.0969 -85.7997 279° West 389 448 32,500 1,200 Climbing Atlanta Center
Mon 10:14:16 AM 34.1136 -85.9356 278° West 389 448 34,000 1,050 Climbing Atlanta Center
Mon 10:15:16 AM 34.1283 -86.0589 278° West 389 448 34,600 550 Climbing Atlanta Center
Mon 10:16:16 AM 34.1469 -86.1875 280° West 389 448 35,100 500 Climbing Atlanta Center
Mon 10:17:16 AM 34.1614 -86.3183 278° West 389 448 35,600 500 Climbing Atlanta Center
Mon 10:18:16 AM 34.1797 -86.4494 280° West 389 448 36,100 500 Climbing Atlanta Center
Mon 10:19:16 AM 34.1958 -86.5778 279° West 389 448 36,600 500 Climbing Atlanta Center
Mon 10:20:16 AM 34.2119 -86.7064 279° West 389 448 37,100 712 Climbing Atlanta Center
Mon 10:21:14 AM 34.2272 -86.8378 278° West 389 448 38,000 539 Climbing Memphis Center
Mon 10:23:14 AM 34.2592 -87.0928 279° West 373 429 38,700 400 Climbing Memphis Center
Mon 10:24:14 AM 34.2686 -87.2156 275° West 373 429 39,200 400 Climbing Memphis Center
Mon 10:25:14 AM 34.2906 -87.3456 282° West 386 444 39,500 350 Climbing Memphis Center
Mon 10:26:14 AM 34.3039 -87.4681 278° West 381 438 39,900 250 Climbing Memphis Center
Mon 10:27:14 AM 34.3172 -87.5933 277° West 381 438 40,000 50 Climbing Memphis Center
Mon 10:28:14 AM 34.3325 -87.7211 278° West 386 444 40,000  Level Memphis Center
Mon 10:29:14 AM 34.3475 -87.8464 278° West 386 444 40,000  Level Memphis Center
Mon 10:30:14 AM 34.3625 -87.9719 278° West 386 444 40,000  Level Memphis Center
Mon 10:32:14 AM 34.3903 -88.2353 277° West 391 450 40,000  Level Memphis Center
Mon 10:33:14 AM 34.4050 -88.3658 278° West 397 457 40,000  Level Memphis Center
Mon 10:34:14 AM 34.4194 -88.4964 278° West 402 463 40,000  Level Memphis Center
Mon 10:35:14 AM 34.4339 -88.6297 278° West 402 463 40,000  Level Memphis Center
Mon 10:36:14 AM 34.4483 -88.7628 278° West 407 468 40,000  Level Memphis Center
Mon 10:37:14 AM 34.4603 -88.8783 277° West 401 461 40,000  Level Memphis Center
Mon 10:38:14 AM 34.4744 -89.0244 277° West 395 455 40,000  Level Memphis Center
Mon 10:39:14 AM 34.4883 -89.1578 277° West 407 468 40,000  Level Memphis Center
Mon 10:40:14 AM 34.5019 -89.2936 277° West 407 468 40,000  Level Memphis Center
Mon 10:41:14 AM 34.5156 -89.4294 277° West 407 468 40,000  Level Memphis Center
Mon 10:42:14 AM 34.5311 -89.5656 278° West 407 468 40,000  Level Memphis Center
Mon 10:43:14 AM 34.5425 -89.7042 276° West 407 468 40,000  Level Memphis Center
Mon 10:44:14 AM 34.5556 -89.8275 277° West 413 475 40,000  Level Memphis Center
Mon 10:45:14 AM 34.5686 -89.9636 277° West 413 475 40,000  Level Memphis Center
Mon 10:46:14 AM 34.5836 -90.0997 278° West 408 470 40,000  Level Memphis Center
Mon 10:47:14 AM 34.5964 -90.2361 277° West 403 464 40,000  Level Memphis Center
Mon 10:48:14 AM 34.6108 -90.3875 277° West 408 470 40,000  Level Memphis Center
Mon 10:49:14 AM 34.6233 -90.5211 277° West 408 470 40,000  Level Memphis Center
Mon 10:50:14 AM 34.6356 -90.6550 276° West 408 470 40,000  Level Memphis Center
Mon 10:51:14 AM 34.6456 -90.7914 275° West 408 470 40,000  Level Memphis Center
Mon 10:53:14 AM 34.6717 -91.0617 277° West 408 470 40,000  Level Memphis Center
Mon 10:54:14 AM 34.6833 -91.1956 276° West 403 464 40,000  Level Memphis Center
Mon 10:55:14 AM 34.6969 -91.3322 277° West 408 470 40,000  Level Memphis Center
Mon 10:56:14 AM 34.7064 -91.4561 275° West 408 470 40,000  Level Memphis Center
Mon 10:57:14 AM 34.7197 -91.5928 277° West 408 470 40,000  Level Memphis Center
Mon 10:58:14 AM 34.7306 -91.7394 275° West 408 470 40,000  Level Memphis Center
Mon 10:59:14 AM 34.7436 -91.8736 277° West 408 470 40,000  Level Memphis Center
Mon 11:00:14 AM 34.7544 -92.0103 276° West 408 470 40,000  Level Memphis Center
Mon 11:01:14 AM 34.7650 -92.1519 275° West 408 470 40,000  Level Memphis Center
Mon 11:02:14 AM 34.7733 -92.2911 274° West 408 470 40,000  Level Memphis Center
Mon 11:03:14 AM 34.7836 -92.4256 275° West 408 470 40,000  Level Memphis Center
Mon 11:04:14 AM 34.7961 -92.5622 276° West 408 470 40,000  Level Memphis Center
Mon 11:05:14 AM 34.8061 -92.7017 275° West 408 470 40,000  Level Memphis Center
Mon 11:06:14 AM 34.8158 -92.8386 275° West 408 470 40,000  Level Memphis Center
Mon 11:07:14 AM 34.8236 -92.9753 274° West 408 470 40,000  Level Memphis Center
Mon 11:08:14 AM 34.8353 -93.1125 276° West 408 470 40,000  Level Memphis Center
Mon 11:09:14 AM 34.8425 -93.2492 274° West 408 470 40,000  Level Memphis Center
Mon 11:10:14 AM 34.8539 -93.3839 276° West 403 464 40,000  Level Memphis Center
Mon 11:11:14 AM 34.8631 -93.5181 275° West 403 464 40,000  Level Memphis Center
Mon 11:12:14 AM 34.8700 -93.6550 274° West 408 470 40,000  Level Memphis Center
Mon 11:13:14 AM 34.8789 -93.7872 275° West 408 470 40,000  Level Memphis Center
Mon 11:14:14 AM 34.8917 -93.9269 276° West 403 464 40,000  Level Memphis Center
Mon 11:15:14 AM 34.8964 -94.0561 273° West 410 472 40,000  Level Memphis Center
Mon 11:16:14 AM 34.9067 -94.1933 275° West 404 465 40,000  Level Memphis Center
Mon 11:17:14 AM 34.9131 -94.3253 273° West 404 465 40,000  Level Memphis Center
Mon 11:18:34 AM 34.9242 -94.5014 274° West 426 490 40,000  Level Fort Worth Center
Mon 11:19:34 AM 34.9333 -94.6353 275° West 421 484 40,000  Level Fort Worth Center
Mon 11:20:34 AM 34.9408 -94.7869 273° West 410 472 40,000  Level Fort Worth Center
Mon 11:21:34 AM 34.9497 -94.9208 275° West 410 472 40,000  Level Fort Worth Center
Mon 11:22:34 AM 34.9567 -95.0575 274° West 405 466 40,000  Level Fort Worth Center
Mon 11:23:34 AM 34.9653 -95.1892 275° West 400 460 40,000  Level Fort Worth Center
Mon 11:24:34 AM 34.9719 -95.3308 273° West 400 460 40,000  Level Fort Worth Center
Mon 11:25:34 AM 34.9781 -95.4625 273° West 400 460 40,000  Level Fort Worth Center
Mon 11:26:34 AM 34.9864 -95.5992 274° West 405 466 40,000  Level Fort Worth Center
Mon 11:27:34 AM 34.9925 -95.7306 273° West 398 458 40,000  Level Fort Worth Center
Mon 11:28:34 AM 34.9983 -95.8625 273° West 398 458 40,000  Level Fort Worth Center
Mon 11:30:00 AM 34.9685 -96.0483 259° West  Level FlightAware Approximate
Mon 11:30:34 AM 35.0075 -96.1258 259° West 398 458 40,000  Level Fort Worth Center
Mon 11:31:34 AM 35.0150 -96.2525 274° West 393 452 40,000  Level Fort Worth Center
Mon 11:32:34 AM 35.0203 -96.3842 273° West 393 452 40,000  Level Fort Worth Center
Mon 11:33:34 AM 35.0275 -96.5161 274° West 388 447 40,000  Level Fort Worth Center
Mon 11:34:34 AM 35.0306 -96.6453 272° West 383 441 40,000  Level Fort Worth Center
Mon 11:35:34 AM 35.0353 -96.7669 273° West 383 441 40,000  Level Fort Worth Center
Mon 11:36:34 AM 35.0403 -96.8936 273° West 383 441 40,000  Level Fort Worth Center
Mon 11:37:34 AM 35.0469 -97.0256 274° West 383 441 40,000  Level Fort Worth Center
Mon 11:38:34 AM 35.0494 -97.1547 271° West 383 441 40,000  Level Fort Worth Center
Mon 11:39:34 AM 35.0558 -97.2867 273° West 383 441 40,000  Level Fort Worth Center
Mon 11:40:34 AM 35.0600 -97.3933 273° West 383 441 40,000  Level Fort Worth Center
Mon 11:41:34 AM 35.0661 -97.5378 273° West 383 441 40,000  Level Fort Worth Center
Mon 11:42:34 AM 35.0703 -97.6697 272° West 388 447 40,000  Level Fort Worth Center
Mon 11:43:34 AM 35.0739 -97.8017 272° West 388 447 40,000  Level Fort Worth Center
Mon 11:44:34 AM 35.0778 -97.9361 272° West 388 447 40,000  Level Fort Worth Center
Mon 11:45:34 AM 35.0833 -98.0681 273° West 388 447 40,000  Level Fort Worth Center
Mon 11:46:34 AM 35.0889 -98.2000 273° West 388 447 40,000  Level Fort Worth Center
Mon 11:47:34 AM 35.0919 -98.3294 272° West 388 447 40,000  Level Fort Worth Center
Mon 11:48:34 AM 35.0953 -98.4617 272° West 388 447 40,000  Level Fort Worth Center
Mon 11:49:34 AM 35.0983 -98.5883 272° West 382 440 40,000  Level Fort Worth Center
Mon 11:51:49 AM 35.1067 -98.8800 272° West 385 443 40,000  Level Albuquerque Center
Mon 11:52:34 AM 35.1083 -98.9947 271° West 387 445 40,000  Level Fort Worth Center
Mon 11:53:34 AM 35.1108 -99.1242 271° West 387 445 40,000  Level Fort Worth Center
Mon 11:54:34 AM 35.1153 -99.2561 272° West 387 445 40,000  Level Fort Worth Center
Mon 11:57:00 AM 35.0943 -99.3946 260° West  Level FlightAware Approximate
Mon 11:58:00 AM 35.1242 -99.6975 260° West 388 447 40,000  Level Albuquerque Center
Mon 11:59:01 AM 35.1250 -99.8297 270° West 388 447 40,000  Level Albuquerque Center
Mon 12:00:03 PM 35.1272 -99.9589 271° West 384 442 40,000  Level Albuquerque Center
Mon 12:01:05 PM 35.1297 -100.0944 271° West 388 447 40,000  Level Albuquerque Center
Mon 12:02:07 PM 35.1322 -100.2281 271° West 391 450 40,000  Level Albuquerque Center
Mon 12:03:09 PM 35.1344 -100.3856 271° West 391 450 40,000  Level Albuquerque Center
Mon 12:04:10 PM 35.1350 -100.5175 270° West 391 450 40,000  Level Albuquerque Center
Mon 12:05:12 PM 35.1364 -100.6511 271° West 393 452 40,000  Level Albuquerque Center
Mon 12:06:14 PM 35.1364 -100.7844 270° West 393 452 40,000  Level Albuquerque Center
Mon 12:07:16 PM 35.1383 -100.9178 271° West 394 453 40,000  Level Albuquerque Center
Mon 12:08:18 PM 35.1386 -101.0528 270° West 397 457 40,000  Level Albuquerque Center
Mon 12:09:19 PM 35.1386 -101.1903 270° West 402 463 40,000  Level Albuquerque Center
Mon 12:10:21 PM 35.1394 -101.3350 270° West 407 468 40,000  Level Albuquerque Center
Mon 12:11:23 PM 35.1444 -101.4758 273° West 412 474 40,000  Level Albuquerque Center
Mon 12:12:25 PM 35.1425 -101.6431 269° West 411 473 40,000  Level Albuquerque Center
Mon 12:13:27 PM 35.1389 -101.7794 268° West 414 476 40,000  Level Albuquerque Center
Mon 12:14:28 PM 35.1386 -101.9206 270° West 414 476 40,000  Level Albuquerque Center
Mon 12:15:30 PM 35.1392 -102.0653 270° West 410 472 40,000  Level Albuquerque Center
Mon 12:16:32 PM 35.1383 -102.2058 270° West 411 473 40,000  Level Albuquerque Center
Mon 12:17:34 PM 35.1381 -102.3458 270° West 412 474 40,000  Level Albuquerque Center
Mon 12:18:36 PM 35.1367 -102.4853 269° West 413 475 40,000  Level Albuquerque Center
Mon 12:19:38 PM 35.1369 -102.6256 270° West 413 475 40,000  Level Albuquerque Center
Mon 12:20:40 PM 35.1353 -102.7936 269° West 414 476 40,000  Level Albuquerque Center
Mon 12:21:41 PM 35.1339 -102.9350 269° West 416 479 40,000  Level Albuquerque Center
Mon 12:23:00 PM 35.1000 -103.1073 270° West  Level FlightAware Approximate
Mon 12:23:45 PM 35.1300 -103.2172 270° West 415 478 40,000  Level Albuquerque Center
Mon 12:24:47 PM 35.1300 -103.3606 270° West 417 480 40,000  Level Albuquerque Center
Mon 12:25:49 PM 35.1267 -103.5033 268° West 418 481 40,000  Level Albuquerque Center
Mon 12:26:51 PM 35.1244 -103.6458 269° West 416 479 40,000  Level Albuquerque Center
Mon 12:27:53 PM 35.1219 -103.8136 269° West 419 482 40,000  Level Albuquerque Center
Mon 12:28:55 PM 35.1203 -103.9528 269° West 420 483 40,000 -194 Level Albuquerque Center
Mon 12:29:57 PM 35.1194 -104.0969 270° West 423 487 39,600 -435 Descending Albuquerque Center
Mon 12:30:59 PM 35.1164 -104.2425 269° West 428 493 39,100 -532 Descending Albuquerque Center
Mon 12:32:01 PM 35.1136 -104.3875 269° West 429 494 38,500 -532 Descending Albuquerque Center
Mon 12:33:03 PM 35.1114 -104.5633 269° West 432 497 38,000 -919 Descending Albuquerque Center
Mon 12:34:05 PM 35.1056 -104.7031 267° West 433 498 36,600 -1,854 Descending Albuquerque Center
Mon 12:35:06 PM 35.1031 -104.8564 269° West 442 509 34,200 -2,293 Descending Albuquerque Center
Mon 12:36:08 PM 35.1003 -105.0100 269° West 448 516 31,900 -2,032 Descending Albuquerque Center
Mon 12:37:10 PM 35.0942 -105.1619 267° West 446 513 30,000 -2,226 Descending Albuquerque Center
Mon 12:38:12 PM 35.0947 -105.3422 270° West 450 518 27,300 -2,710 Descending Albuquerque Center
Mon 12:39:14 PM 35.0892 -105.4989 268° West 457 526 24,400 -2,688 Descending Albuquerque Center
Mon 12:40:17 PM 35.0828 -105.6586 267° West 465 535 21,700 -2,406 Descending Albuquerque Center
Mon 12:42:21 PM 35.0744 -105.9583 268° West 426 490 16,900 -2,195 Descending Albuquerque Center
Mon 12:43:01 PM 35.0692 -106.0611 266° West 417 480 15,700 -1,140 Descending Albuquerque Center
Mon 12:44:01 PM 35.0661 -106.1997 268° West 409 471 15,000 -898 Descending Albuquerque Center
Mon 12:45:08 PM 35.0611 -106.3517 268° West 382 440 13,800 -984 Descending Albuquerque Center
Mon 12:46:09 PM 35.0194 -106.4661 246° West 368 423 12,900 -1,343 Descending Albuquerque Center
Mon 12:47:31 PM 34.9350 -106.5692 225° Southwest 299 344 10,600 -1,500 Descending Albuquerque Center
Mon 12:48:33 PM 34.9061 -106.6317 241° Southwest 236 272 9,300 -1,548 Descending Albuquerque Center
Mon 12:49:35 PM 34.9425 -106.6775 314° West 189 217 7,400 -1,452 Descending Albuquerque Center
Mon 12:50:37 PM 34.9861 -106.6706 North 149 171 6,300 -1,065 Descending Albuquerque Center
Mon 12:52:00 PM 35.0402 -106.6092 90° East  Level Estimated

Login

Don't have an account? Register now (free) for customized features, flight alerts, and more!